sensor_id;sensor_type;location;lat;lon;timestamp;P1;durP1;ratioP1;P2;durP2;ratioP2
19673;SDS011;9986;50.610;7.230;2023-02-28T00:00:30;2.60;;;2.40;;
19673;SDS011;9986;50.610;7.230;2023-02-28T00:03:10;2.50;;;2.17;;
19673;SDS011;9986;50.610;7.230;2023-02-28T00:05:48;3.23;;;2.60;;
19673;SDS011;9986;50.610;7.230;2023-02-28T00:08:19;3.60;;;2.47;;
19673;SDS011;9986;50.610;7.230;2023-02-28T00:11:02;3.77;;;2.50;;
19673;SDS011;9986;50.610;7.230;2023-02-28T00:13:43;5.07;;;3.13;;
19673;SDS011;9986;50.610;7.230;2023-02-28T00:19:02;3.70;;;2.50;;
19673;SDS011;9986;50.610;7.230;2023-02-28T00:21:43;2.97;;;2.43;;
19673;SDS011;9986;50.610;7.230;2023-02-28T00:24:24;2.53;;;2.10;;
19673;SDS011;9986;50.610;7.230;2023-02-28T00:27:02;2.50;;;2.40;;
19673;SDS011;9986;50.610;7.230;2023-02-28T00:29:49;2.43;;;2.30;;
19673;SDS011;9986;50.610;7.230;2023-02-28T00:32:34;2.47;;;2.27;;
19673;SDS011;9986;50.610;7.230;2023-02-28T00:37:42;4.00;;;2.47;;
19673;SDS011;9986;50.610;7.230;2023-02-28T00:40:20;2.37;;;2.07;;
19673;SDS011;9986;50.610;7.230;2023-02-28T00:42:58;2.53;;;2.33;;
19673;SDS011;9986;50.610;7.230;2023-02-28T00:48:22;3.20;;;2.43;;
19673;SDS011;9986;50.610;7.230;2023-02-28T00:53:39;4.70;;;2.40;;
19673;SDS011;9986;50.610;7.230;2023-02-28T00:56:17;2.30;;;2.07;;
19673;SDS011;9986;50.610;7.230;2023-02-28T01:01:38;2.30;;;2.20;;
19673;SDS011;9986;50.610;7.230;2023-02-28T01:07:03;2.50;;;2.30;;
19673;SDS011;9986;50.610;7.230;2023-02-28T01:12:11;3.90;;;2.20;;
19673;SDS011;9986;50.610;7.230;2023-02-28T01:17:27;2.23;;;2.13;;
19673;SDS011;9986;50.610;7.230;2023-02-28T01:20:08;2.23;;;2.13;;
19673;SDS011;9986;50.610;7.230;2023-02-28T01:22:48;4.00;;;2.23;;
19673;SDS011;9986;50.610;7.230;2023-02-28T01:25:26;2.43;;;2.23;;
19673;SDS011;9986;50.610;7.230;2023-02-28T01:30:49;3.60;;;2.40;;
19673;SDS011;9986;50.610;7.230;2023-02-28T01:33:29;2.93;;;2.53;;
19673;SDS011;9986;50.610;7.230;2023-02-28T01:36:10;2.50;;;2.40;;
19673;SDS011;9986;50.610;7.230;2023-02-28T01:38:49;2.43;;;2.33;;
19673;SDS011;9986;50.610;7.230;2023-02-28T01:47:40;3.20;;;2.90;;
19673;SDS011;9986;50.610;7.230;2023-02-28T01:50:24;3.57;;;2.63;;
19673;SDS011;9986;50.610;7.230;2023-02-28T01:53:04;2.73;;;2.53;;
19673;SDS011;9986;50.610;7.230;2023-02-28T01:55:45;2.83;;;2.37;;
19673;SDS011;9986;50.610;7.230;2023-02-28T02:01:01;2.63;;;2.23;;
19673;SDS011;9986;50.610;7.230;2023-02-28T02:03:45;3.07;;;2.70;;
19673;SDS011;9986;50.610;7.230;2023-02-28T02:06:23;2.90;;;2.60;;
19673;SDS011;9986;50.610;7.230;2023-02-28T02:09:04;2.50;;;2.30;;
19673;SDS011;9986;50.610;7.230;2023-02-28T02:11:46;2.17;;;2.07;;
19673;SDS011;9986;50.610;7.230;2023-02-28T02:14:35;3.50;;;2.40;;
19673;SDS011;9986;50.610;7.230;2023-02-28T02:17:20;2.80;;;2.60;;
19673;SDS011;9986;50.610;7.230;2023-02-28T02:22:45;3.00;;;2.23;;
19673;SDS011;9986;50.610;7.230;2023-02-28T02:28:34;2.60;;;2.40;;
19673;SDS011;9986;50.610;7.230;2023-02-28T02:34:36;3.27;;;2.97;;
19673;SDS011;9986;50.610;7.230;2023-02-28T02:40:00;2.70;;;2.50;;
19673;SDS011;9986;50.610;7.230;2023-02-28T02:45:19;2.67;;;2.20;;
19673;SDS011;9986;50.610;7.230;2023-02-28T02:47:58;4.07;;;2.37;;
19673;SDS011;9986;50.610;7.230;2023-02-28T02:50:41;2.57;;;2.40;;
19673;SDS011;9986;50.610;7.230;2023-02-28T02:53:19;2.80;;;2.60;;
19673;SDS011;9986;50.610;7.230;2023-02-28T02:55:58;2.77;;;2.57;;
19673;SDS011;9986;50.610;7.230;2023-02-28T02:58:40;3.73;;;2.60;;
19673;SDS011;9986;50.610;7.230;2023-02-28T03:01:20;3.30;;;2.50;;
19673;SDS011;9986;50.610;7.230;2023-02-28T03:03:59;2.67;;;2.50;;
19673;SDS011;9986;50.610;7.230;2023-02-28T03:06:38;2.70;;;2.50;;
19673;SDS011;9986;50.610;7.230;2023-02-28T03:09:20;2.67;;;2.40;;
19673;SDS011;9986;50.610;7.230;2023-02-28T03:14:38;2.33;;;2.23;;
19673;SDS011;9986;50.610;7.230;2023-02-28T03:17:23;3.50;;;2.73;;
19673;SDS011;9986;50.610;7.230;2023-02-28T03:20:06;3.10;;;2.63;;
19673;SDS011;9986;50.610;7.230;2023-02-28T03:22:50;2.90;;;2.70;;
19673;SDS011;9986;50.610;7.230;2023-02-28T03:25:31;2.30;;;2.20;;
19673;SDS011;9986;50.610;7.230;2023-02-28T03:28:12;3.57;;;2.43;;
19673;SDS011;9986;50.610;7.230;2023-02-28T03:30:50;3.17;;;2.97;;
19673;SDS011;9986;50.610;7.230;2023-02-28T03:36:07;4.43;;;2.80;;
19673;SDS011;9986;50.610;7.230;2023-02-28T03:41:20;2.70;;;2.57;;
19673;SDS011;9986;50.610;7.230;2023-02-28T03:44:03;3.80;;;2.67;;
19673;SDS011;9986;50.610;7.230;2023-02-28T03:49:13;2.70;;;2.50;;
19673;SDS011;9986;50.610;7.230;2023-02-28T03:54:22;2.80;;;2.67;;
19673;SDS011;9986;50.610;7.230;2023-02-28T03:57:15;2.90;;;2.70;;
19673;SDS011;9986;50.610;7.230;2023-02-28T03:59:54;5.63;;;3.00;;
19673;SDS011;9986;50.610;7.230;2023-02-28T04:05:15;2.93;;;2.73;;
19673;SDS011;9986;50.610;7.230;2023-02-28T04:08:04;3.20;;;2.77;;
19673;SDS011;9986;50.610;7.230;2023-02-28T04:13:18;3.83;;;3.30;;
19673;SDS011;9986;50.610;7.230;2023-02-28T04:18:25;3.97;;;3.00;;
19673;SDS011;9986;50.610;7.230;2023-02-28T04:21:08;3.27;;;3.07;;
19673;SDS011;9986;50.610;7.230;2023-02-28T04:23:49;3.40;;;3.10;;
19673;SDS011;9986;50.610;7.230;2023-02-28T04:26:32;3.20;;;3.00;;
19673;SDS011;9986;50.610;7.230;2023-02-28T04:29:11;3.43;;;3.10;;
19673;SDS011;9986;50.610;7.230;2023-02-28T04:31:49;3.23;;;3.00;;
19673;SDS011;9986;50.610;7.230;2023-02-28T04:34:33;4.57;;;3.20;;
19673;SDS011;9986;50.610;7.230;2023-02-28T04:37:11;3.63;;;2.97;;
19673;SDS011;9986;50.610;7.230;2023-02-28T04:39:53;3.20;;;3.00;;
19673;SDS011;9986;50.610;7.230;2023-02-28T04:42:31;3.33;;;3.13;;
19673;SDS011;9986;50.610;7.230;2023-02-28T04:45:10;2.87;;;2.67;;
19673;SDS011;9986;50.610;7.230;2023-02-28T04:47:48;4.53;;;3.30;;
19673;SDS011;9986;50.610;7.230;2023-02-28T04:50:25;3.00;;;2.80;;
19673;SDS011;9986;50.610;7.230;2023-02-28T04:53:03;3.20;;;3.00;;
19673;SDS011;9986;50.610;7.230;2023-02-28T04:55:42;3.67;;;2.97;;
19673;SDS011;9986;50.610;7.230;2023-02-28T04:58:19;2.77;;;2.57;;
19673;SDS011;9986;50.610;7.230;2023-02-28T05:01:01;3.17;;;2.97;;
19673;SDS011;9986;50.610;7.230;2023-02-28T05:06:19;4.40;;;2.90;;
19673;SDS011;9986;50.610;7.230;2023-02-28T05:08:57;5.37;;;3.23;;
19673;SDS011;9986;50.610;7.230;2023-02-28T05:11:35;4.13;;;3.77;;
19673;SDS011;9986;50.610;7.230;2023-02-28T05:14:13;4.43;;;3.20;;
19673;SDS011;9986;50.610;7.230;2023-02-28T05:16:52;4.97;;;2.90;;
19673;SDS011;9986;50.610;7.230;2023-02-28T05:19:33;3.30;;;3.00;;
19673;SDS011;9986;50.610;7.230;2023-02-28T05:22:19;4.57;;;3.10;;
19673;SDS011;9986;50.610;7.230;2023-02-28T05:27:33;3.33;;;3.03;;
19673;SDS011;9986;50.610;7.230;2023-02-28T05:30:14;3.00;;;2.73;;
19673;SDS011;9986;50.610;7.230;2023-02-28T05:32:52;3.00;;;2.80;;
19673;SDS011;9986;50.610;7.230;2023-02-28T05:35:24;3.20;;;3.00;;
19673;SDS011;9986;50.610;7.230;2023-02-28T05:38:05;2.90;;;2.70;;
19673;SDS011;9986;50.610;7.230;2023-02-28T05:45:58;3.87;;;2.90;;
19673;SDS011;9986;50.610;7.230;2023-02-28T05:48:36;3.30;;;3.10;;
19673;SDS011;9986;50.610;7.230;2023-02-28T05:51:14;2.80;;;2.60;;
19673;SDS011;9986;50.610;7.230;2023-02-28T05:53:52;2.77;;;2.57;;
19673;SDS011;9986;50.610;7.230;2023-02-28T06:01:42;3.03;;;2.83;;
19673;SDS011;9986;50.610;7.230;2023-02-28T06:04:20;3.10;;;2.90;;
19673;SDS011;9986;50.610;7.230;2023-02-28T06:07:00;2.83;;;2.60;;
19673;SDS011;9986;50.610;7.230;2023-02-28T06:09:38;3.20;;;2.90;;
19673;SDS011;9986;50.610;7.230;2023-02-28T06:12:18;2.90;;;2.70;;
19673;SDS011;9986;50.610;7.230;2023-02-28T06:14:56;3.23;;;3.03;;
19673;SDS011;9986;50.610;7.230;2023-02-28T06:17:36;3.10;;;2.83;;
19673;SDS011;9986;50.610;7.230;2023-02-28T06:20:17;2.87;;;2.70;;
19673;SDS011;9986;50.610;7.230;2023-02-28T06:25:25;3.50;;;3.07;;
19673;SDS011;9986;50.610;7.230;2023-02-28T06:28:11;3.67;;;2.97;;
19673;SDS011;9986;50.610;7.230;2023-02-28T06:30:49;2.93;;;2.70;;
19673;SDS011;9986;50.610;7.230;2023-02-28T06:33:28;3.60;;;3.20;;
19673;SDS011;9986;50.610;7.230;2023-02-28T06:36:11;3.13;;;2.93;;
19673;SDS011;9986;50.610;7.230;2023-02-28T06:38:57;3.60;;;3.03;;
19673;SDS011;9986;50.610;7.230;2023-02-28T06:41:36;3.30;;;3.10;;
19673;SDS011;9986;50.610;7.230;2023-02-28T06:44:14;3.57;;;3.37;;
19673;SDS011;9986;50.610;7.230;2023-02-28T06:46:58;3.43;;;3.13;;
19673;SDS011;9986;50.610;7.230;2023-02-28T06:49:35;3.17;;;2.97;;
19673;SDS011;9986;50.610;7.230;2023-02-28T06:52:16;4.17;;;3.23;;
19673;SDS011;9986;50.610;7.230;2023-02-28T06:54:54;2.90;;;2.70;;
19673;SDS011;9986;50.610;7.230;2023-02-28T06:57:35;3.30;;;3.10;;
19673;SDS011;9986;50.610;7.230;2023-02-28T07:02:42;3.47;;;3.17;;
19673;SDS011;9986;50.610;7.230;2023-02-28T07:05:20;3.23;;;2.53;;
19673;SDS011;9986;50.610;7.230;2023-02-28T07:07:58;3.27;;;2.93;;
19673;SDS011;9986;50.610;7.230;2023-02-28T07:13:06;3.30;;;3.10;;
19673;SDS011;9986;50.610;7.230;2023-02-28T07:15:53;3.23;;;2.97;;
19673;SDS011;9986;50.610;7.230;2023-02-28T07:21:09;3.47;;;3.27;;
19673;SDS011;9986;50.610;7.230;2023-02-28T07:28:52;3.77;;;3.53;;
19673;SDS011;9986;50.610;7.230;2023-02-28T07:31:31;3.63;;;3.33;;
19673;SDS011;9986;50.610;7.230;2023-02-28T07:34:11;3.37;;;3.07;;
19673;SDS011;9986;50.610;7.230;2023-02-28T07:36:51;5.10;;;3.57;;
19673;SDS011;9986;50.610;7.230;2023-02-28T07:42:08;3.83;;;3.53;;
19673;SDS011;9986;50.610;7.230;2023-02-28T07:44:46;2.80;;;2.60;;
19673;SDS011;9986;50.610;7.230;2023-02-28T07:47:26;3.60;;;3.30;;
19673;SDS011;9986;50.610;7.230;2023-02-28T07:50:11;4.50;;;3.50;;
19673;SDS011;9986;50.610;7.230;2023-02-28T07:52:49;3.37;;;3.10;;
19673;SDS011;9986;50.610;7.230;2023-02-28T07:55:27;3.90;;;3.53;;
19673;SDS011;9986;50.610;7.230;2023-02-28T07:58:07;3.87;;;3.47;;
19673;SDS011;9986;50.610;7.230;2023-02-28T08:00:52;3.83;;;3.17;;
19673;SDS011;9986;50.610;7.230;2023-02-28T08:03:30;3.50;;;3.27;;
19673;SDS011;9986;50.610;7.230;2023-02-28T08:06:16;2.97;;;2.73;;
19673;SDS011;9986;50.610;7.230;2023-02-28T08:08:55;4.03;;;2.73;;
19673;SDS011;9986;50.610;7.230;2023-02-28T08:11:39;3.87;;;2.90;;
19673;SDS011;9986;50.610;7.230;2023-02-28T08:14:19;3.07;;;2.87;;
19673;SDS011;9986;50.610;7.230;2023-02-28T08:16:57;3.03;;;2.83;;
19673;SDS011;9986;50.610;7.230;2023-02-28T08:24:51;3.70;;;3.00;;
19673;SDS011;9986;50.610;7.230;2023-02-28T08:27:32;3.87;;;3.23;;
19673;SDS011;9986;50.610;7.230;2023-02-28T08:30:16;3.57;;;3.27;;
19673;SDS011;9986;50.610;7.230;2023-02-28T08:35:37;2.83;;;2.60;;
19673;SDS011;9986;50.610;7.230;2023-02-28T08:38:15;5.00;;;3.47;;
19673;SDS011;9986;50.610;7.230;2023-02-28T08:40:57;2.97;;;2.77;;
19673;SDS011;9986;50.610;7.230;2023-02-28T08:43:36;3.10;;;2.90;;
19673;SDS011;9986;50.610;7.230;2023-02-28T08:46:14;3.20;;;3.00;;
19673;SDS011;9986;50.610;7.230;2023-02-28T08:48:53;3.67;;;3.30;;
19673;SDS011;9986;50.610;7.230;2023-02-28T08:51:31;4.27;;;2.30;;
19673;SDS011;9986;50.610;7.230;2023-02-28T08:54:09;2.60;;;2.50;;
19673;SDS011;9986;50.610;7.230;2023-02-28T08:56:56;2.60;;;2.40;;
19673;SDS011;9986;50.610;7.230;2023-02-28T08:59:34;3.23;;;3.00;;
19673;SDS011;9986;50.610;7.230;2023-02-28T09:02:13;2.90;;;2.67;;
19673;SDS011;9986;50.610;7.230;2023-02-28T09:04:51;2.70;;;2.50;;
19673;SDS011;9986;50.610;7.230;2023-02-28T09:07:28;3.67;;;3.27;;
19673;SDS011;9986;50.610;7.230;2023-02-28T09:10:07;3.23;;;3.03;;
19673;SDS011;9986;50.610;7.230;2023-02-28T09:12:46;2.70;;;2.50;;
19673;SDS011;9986;50.610;7.230;2023-02-28T09:17:54;2.70;;;2.50;;
19673;SDS011;9986;50.610;7.230;2023-02-28T09:20:34;2.97;;;2.77;;
19673;SDS011;9986;50.610;7.230;2023-02-28T09:25:47;2.57;;;2.40;;
19673;SDS011;9986;50.610;7.230;2023-02-28T09:28:25;2.70;;;2.50;;
19673;SDS011;9986;50.610;7.230;2023-02-28T09:36:13;2.60;;;2.40;;
19673;SDS011;9986;50.610;7.230;2023-02-28T09:41:21;2.70;;;2.50;;
19673;SDS011;9986;50.610;7.230;2023-02-28T09:44:00;2.93;;;2.67;;
19673;SDS011;9986;50.610;7.230;2023-02-28T09:46:40;2.97;;;2.60;;
19673;SDS011;9986;50.610;7.230;2023-02-28T09:49:24;2.80;;;2.57;;
19673;SDS011;9986;50.610;7.230;2023-02-28T09:54:35;2.93;;;2.73;;
19673;SDS011;9986;50.610;7.230;2023-02-28T09:59:48;2.60;;;2.40;;
19673;SDS011;9986;50.610;7.230;2023-02-28T10:05:47;3.10;;;2.87;;
19673;SDS011;9986;50.610;7.230;2023-02-28T10:08:26;2.57;;;2.43;;
19673;SDS011;9986;50.610;7.230;2023-02-28T10:11:06;2.77;;;2.57;;
19673;SDS011;9986;50.610;7.230;2023-02-28T10:16:20;2.77;;;2.57;;
19673;SDS011;9986;50.610;7.230;2023-02-28T10:19:02;4.60;;;2.90;;
19673;SDS011;9986;50.610;7.230;2023-02-28T10:24:16;2.50;;;2.40;;
19673;SDS011;9986;50.610;7.230;2023-02-28T10:26:50;3.07;;;2.60;;
19673;SDS011;9986;50.610;7.230;2023-02-28T10:32:10;4.23;;;2.50;;
19673;SDS011;9986;50.610;7.230;2023-02-28T10:34:51;2.53;;;2.33;;
19673;SDS011;9986;50.610;7.230;2023-02-28T10:40:01;3.47;;;2.20;;
19673;SDS011;9986;50.610;7.230;2023-02-28T10:45:13;2.80;;;2.60;;
19673;SDS011;9986;50.610;7.230;2023-02-28T10:47:55;2.67;;;2.47;;
19673;SDS011;9986;50.610;7.230;2023-02-28T10:50:42;2.40;;;2.30;;
19673;SDS011;9986;50.610;7.230;2023-02-28T10:53:27;2.27;;;2.03;;
19673;SDS011;9986;50.610;7.230;2023-02-28T10:56:15;2.73;;;2.53;;
19673;SDS011;9986;50.610;7.230;2023-02-28T10:58:54;2.93;;;2.00;;
19673;SDS011;9986;50.610;7.230;2023-02-28T11:01:36;3.17;;;2.63;;
19673;SDS011;9986;50.610;7.230;2023-02-28T11:04:18;2.83;;;2.63;;
19673;SDS011;9986;50.610;7.230;2023-02-28T11:07:00;3.73;;;2.20;;
19673;SDS011;9986;50.610;7.230;2023-02-28T11:09:41;2.73;;;2.53;;
19673;SDS011;9986;50.610;7.230;2023-02-28T11:12:23;3.80;;;2.50;;
19673;SDS011;9986;50.610;7.230;2023-02-28T11:17:43;2.50;;;2.30;;
19673;SDS011;9986;50.610;7.230;2023-02-28T11:20:24;2.63;;;2.13;;
19673;SDS011;9986;50.610;7.230;2023-02-28T11:23:04;2.20;;;2.10;;
19673;SDS011;9986;50.610;7.230;2023-02-28T11:25:46;2.50;;;2.33;;
19673;SDS011;9986;50.610;7.230;2023-02-28T11:28:28;2.60;;;2.43;;
19673;SDS011;9986;50.610;7.230;2023-02-28T11:31:17;3.57;;;2.63;;
19673;SDS011;9986;50.610;7.230;2023-02-28T11:33:55;2.47;;;2.27;;
19673;SDS011;9986;50.610;7.230;2023-02-28T11:36:34;3.17;;;2.50;;
19673;SDS011;9986;50.610;7.230;2023-02-28T11:39:18;2.50;;;2.30;;
19673;SDS011;9986;50.610;7.230;2023-02-28T11:44:43;3.43;;;2.37;;
19673;SDS011;9986;50.610;7.230;2023-02-28T11:47:33;2.57;;;2.37;;
19673;SDS011;9986;50.610;7.230;2023-02-28T11:50:19;2.90;;;2.60;;
19673;SDS011;9986;50.610;7.230;2023-02-28T11:53:05;2.70;;;2.50;;
19673;SDS011;9986;50.610;7.230;2023-02-28T11:55:44;2.73;;;2.53;;
19673;SDS011;9986;50.610;7.230;2023-02-28T11:58:33;2.83;;;2.63;;
19673;SDS011;9986;50.610;7.230;2023-02-28T12:01:21;3.53;;;2.40;;
19673;SDS011;9986;50.610;7.230;2023-02-28T12:06:38;2.60;;;2.40;;
19673;SDS011;9986;50.610;7.230;2023-02-28T12:12:23;2.10;;;2.00;;
19673;SDS011;9986;50.610;7.230;2023-02-28T12:15:16;3.07;;;2.27;;
19673;SDS011;9986;50.610;7.230;2023-02-28T12:18:01;2.53;;;2.13;;
19673;SDS011;9986;50.610;7.230;2023-02-28T12:20:46;2.70;;;2.50;;
19673;SDS011;9986;50.610;7.230;2023-02-28T12:26:01;2.80;;;2.60;;
19673;SDS011;9986;50.610;7.230;2023-02-28T12:28:46;3.37;;;3.07;;
19673;SDS011;9986;50.610;7.230;2023-02-28T12:34:04;2.63;;;2.43;;
19673;SDS011;9986;50.610;7.230;2023-02-28T12:36:43;4.33;;;2.30;;
19673;SDS011;9986;50.610;7.230;2023-02-28T12:39:23;2.90;;;2.57;;
19673;SDS011;9986;50.610;7.230;2023-02-28T12:44:32;2.50;;;2.30;;
19673;SDS011;9986;50.610;7.230;2023-02-28T12:49:44;2.60;;;2.23;;
19673;SDS011;9986;50.610;7.230;2023-02-28T12:54:53;2.30;;;2.20;;
19673;SDS011;9986;50.610;7.230;2023-02-28T13:00:08;3.93;;;2.40;;
19673;SDS011;9986;50.610;7.230;2023-02-28T13:05:41;3.93;;;2.60;;
19673;SDS011;9986;50.610;7.230;2023-02-28T13:08:38;2.73;;;2.50;;
19673;SDS011;9986;50.610;7.230;2023-02-28T13:14:05;2.87;;;2.67;;
19673;SDS011;9986;50.610;7.230;2023-02-28T13:17:01;3.33;;;2.67;;
19673;SDS011;9986;50.610;7.230;2023-02-28T13:19:40;5.13;;;2.40;;
19673;SDS011;9986;50.610;7.230;2023-02-28T13:22:35;2.70;;;2.50;;
19673;SDS011;9986;50.610;7.230;2023-02-28T13:34:18;3.27;;;2.80;;
19673;SDS011;9986;50.610;7.230;2023-02-28T13:42:32;2.90;;;2.70;;
19673;SDS011;9986;50.610;7.230;2023-02-28T13:47:59;2.67;;;2.47;;
19673;SDS011;9986;50.610;7.230;2023-02-28T13:50:39;2.90;;;2.63;;
19673;SDS011;9986;50.610;7.230;2023-02-28T13:56:39;2.67;;;2.47;;
19673;SDS011;9986;50.610;7.230;2023-02-28T14:01:59;2.93;;;2.67;;
19673;SDS011;9986;50.610;7.230;2023-02-28T14:05:00;2.83;;;2.67;;
19673;SDS011;9986;50.610;7.230;2023-02-28T14:07:40;2.90;;;2.67;;
19673;SDS011;9986;50.610;7.230;2023-02-28T14:10:23;2.90;;;2.70;;
19673;SDS011;9986;50.610;7.230;2023-02-28T14:15:50;2.50;;;2.30;;
19673;SDS011;9986;50.610;7.230;2023-02-28T14:21:12;3.23;;;2.93;;
19673;SDS011;9986;50.610;7.230;2023-02-28T14:27:06;2.73;;;2.53;;
19673;SDS011;9986;50.610;7.230;2023-02-28T14:36:20;3.07;;;2.60;;
19673;SDS011;9986;50.610;7.230;2023-02-28T14:39:06;3.87;;;3.00;;
19673;SDS011;9986;50.610;7.230;2023-02-28T14:41:44;2.87;;;2.67;;
19673;SDS011;9986;50.610;7.230;2023-02-28T14:46:56;2.90;;;2.60;;
19673;SDS011;9986;50.610;7.230;2023-02-28T14:49:41;3.23;;;2.93;;
19673;SDS011;9986;50.610;7.230;2023-02-28T14:52:19;3.27;;;2.97;;
19673;SDS011;9986;50.610;7.230;2023-02-28T14:57:39;3.67;;;3.03;;
19673;SDS011;9986;50.610;7.230;2023-02-28T15:00:27;3.07;;;2.87;;
19673;SDS011;9986;50.610;7.230;2023-02-28T15:03:17;3.30;;;3.00;;
19673;SDS011;9986;50.610;7.230;2023-02-28T15:05:59;3.53;;;3.10;;
19673;SDS011;9986;50.610;7.230;2023-02-28T15:14:02;4.13;;;2.90;;
19673;SDS011;9986;50.610;7.230;2023-02-28T15:16:45;3.70;;;3.40;;
19673;SDS011;9986;50.610;7.230;2023-02-28T15:19:31;4.43;;;3.73;;
19673;SDS011;9986;50.610;7.230;2023-02-28T15:22:16;4.27;;;3.70;;
19673;SDS011;9986;50.610;7.230;2023-02-28T15:24:54;4.23;;;3.23;;
19673;SDS011;9986;50.610;7.230;2023-02-28T15:27:33;3.60;;;3.30;;
19673;SDS011;9986;50.610;7.230;2023-02-28T15:30:16;3.43;;;3.13;;
19673;SDS011;9986;50.610;7.230;2023-02-28T15:33:05;4.00;;;3.60;;
19673;SDS011;9986;50.610;7.230;2023-02-28T15:36:02;4.40;;;3.13;;
19673;SDS011;9986;50.610;7.230;2023-02-28T15:49:46;3.67;;;3.00;;
19673;SDS011;9986;50.610;7.230;2023-02-28T15:52:28;3.60;;;3.30;;
19673;SDS011;9986;50.610;7.230;2023-02-28T15:55:19;4.17;;;3.30;;
19673;SDS011;9986;50.610;7.230;2023-02-28T15:58:00;3.57;;;3.27;;
19673;SDS011;9986;50.610;7.230;2023-02-28T16:00:37;3.60;;;3.30;;
19673;SDS011;9986;50.610;7.230;2023-02-28T16:03:24;3.90;;;3.10;;
19673;SDS011;9986;50.610;7.230;2023-02-28T16:06:21;4.17;;;3.20;;
19673;SDS011;9986;50.610;7.230;2023-02-28T16:09:14;3.77;;;3.37;;
19673;SDS011;9986;50.610;7.230;2023-02-28T16:11:58;3.83;;;3.53;;
19673;SDS011;9986;50.610;7.230;2023-02-28T16:14:36;4.30;;;3.70;;
19673;SDS011;9986;50.610;7.230;2023-02-28T16:17:19;4.50;;;3.70;;
19673;SDS011;9986;50.610;7.230;2023-02-28T16:19:56;3.87;;;3.57;;
19673;SDS011;9986;50.610;7.230;2023-02-28T16:25:10;4.23;;;3.53;;
19673;SDS011;9986;50.610;7.230;2023-02-28T16:27:51;3.47;;;3.00;;
19673;SDS011;9986;50.610;7.230;2023-02-28T16:33:06;4.70;;;4.13;;
19673;SDS011;9986;50.610;7.230;2023-02-28T16:35:48;3.23;;;2.80;;
19673;SDS011;9986;50.610;7.230;2023-02-28T16:38:33;5.27;;;3.00;;
19673;SDS011;9986;50.610;7.230;2023-02-28T16:41:17;3.43;;;3.10;;
19673;SDS011;9986;50.610;7.230;2023-02-28T16:46:30;3.23;;;2.83;;
19673;SDS011;9986;50.610;7.230;2023-02-28T16:51:39;3.63;;;3.30;;
19673;SDS011;9986;50.610;7.230;2023-02-28T16:54:21;3.80;;;3.27;;
19673;SDS011;9986;50.610;7.230;2023-02-28T16:57:11;2.90;;;2.70;;
19673;SDS011;9986;50.610;7.230;2023-02-28T17:02:32;4.70;;;3.30;;
19673;SDS011;9986;50.610;7.230;2023-02-28T17:05:16;4.90;;;2.80;;
19673;SDS011;9986;50.610;7.230;2023-02-28T17:07:58;3.50;;;3.17;;
19673;SDS011;9986;50.610;7.230;2023-02-28T17:10:36;4.03;;;3.57;;
19673;SDS011;9986;50.610;7.230;2023-02-28T17:13:17;2.87;;;2.63;;
19673;SDS011;9986;50.610;7.230;2023-02-28T17:16:02;3.27;;;3.07;;
19673;SDS011;9986;50.610;7.230;2023-02-28T17:21:16;3.57;;;3.27;;
19673;SDS011;9986;50.610;7.230;2023-02-28T17:24:03;3.90;;;2.97;;
19673;SDS011;9986;50.610;7.230;2023-02-28T17:26:41;4.37;;;3.53;;
19673;SDS011;9986;50.610;7.230;2023-02-28T17:29:21;7.67;;;3.43;;
19673;SDS011;9986;50.610;7.230;2023-02-28T17:32:04;5.77;;;3.47;;
19673;SDS011;9986;50.610;7.230;2023-02-28T17:37:11;3.27;;;2.97;;
19673;SDS011;9986;50.610;7.230;2023-02-28T17:39:49;4.47;;;3.43;;
19673;SDS011;9986;50.610;7.230;2023-02-28T17:42:28;4.80;;;3.07;;
19673;SDS011;9986;50.610;7.230;2023-02-28T17:47:46;5.50;;;3.23;;
19673;SDS011;9986;50.610;7.230;2023-02-28T17:52:59;5.30;;;3.40;;
19673;SDS011;9986;50.610;7.230;2023-02-28T17:55:39;3.73;;;3.37;;
19673;SDS011;9986;50.610;7.230;2023-02-28T17:58:19;3.70;;;3.40;;
19673;SDS011;9986;50.610;7.230;2023-02-28T18:01:00;3.40;;;3.10;;
19673;SDS011;9986;50.610;7.230;2023-02-28T18:08:51;4.30;;;3.83;;
19673;SDS011;9986;50.610;7.230;2023-02-28T18:14:05;4.47;;;3.50;;
19673;SDS011;9986;50.610;7.230;2023-02-28T18:16:46;3.83;;;3.53;;
19673;SDS011;9986;50.610;7.230;2023-02-28T18:22:12;4.60;;;4.10;;
19673;SDS011;9986;50.610;7.230;2023-02-28T18:24:49;4.97;;;3.80;;
19673;SDS011;9986;50.610;7.230;2023-02-28T18:27:30;4.20;;;3.80;;
19673;SDS011;9986;50.610;7.230;2023-02-28T18:30:11;3.83;;;3.53;;
19673;SDS011;9986;50.610;7.230;2023-02-28T18:35:40;4.67;;;3.60;;
19673;SDS011;9986;50.610;7.230;2023-02-28T18:38:22;4.50;;;4.10;;
19673;SDS011;9986;50.610;7.230;2023-02-28T18:41:10;4.70;;;4.30;;
19673;SDS011;9986;50.610;7.230;2023-02-28T18:43:54;5.20;;;4.23;;
19673;SDS011;9986;50.610;7.230;2023-02-28T18:46:32;4.53;;;4.10;;
19673;SDS011;9986;50.610;7.230;2023-02-28T18:51:52;4.53;;;4.13;;
19673;SDS011;9986;50.610;7.230;2023-02-28T18:57:00;5.50;;;4.30;;
19673;SDS011;9986;50.610;7.230;2023-02-28T18:59:38;4.83;;;4.20;;
19673;SDS011;9986;50.610;7.230;2023-02-28T19:02:16;6.17;;;4.90;;
19673;SDS011;9986;50.610;7.230;2023-02-28T19:04:59;7.80;;;4.37;;
19673;SDS011;9986;50.610;7.230;2023-02-28T19:15:32;6.07;;;4.50;;
19673;SDS011;9986;50.610;7.230;2023-02-28T19:18:16;5.20;;;4.70;;
19673;SDS011;9986;50.610;7.230;2023-02-28T19:23:30;6.40;;;5.17;;
19673;SDS011;9986;50.610;7.230;2023-02-28T19:26:07;5.03;;;4.53;;
19673;SDS011;9986;50.610;7.230;2023-02-28T19:28:46;4.97;;;4.00;;
19673;SDS011;9986;50.610;7.230;2023-02-28T19:42:04;5.07;;;4.33;;
19673;SDS011;9986;50.610;7.230;2023-02-28T19:50:18;4.40;;;4.00;;
19673;SDS011;9986;50.610;7.230;2023-02-28T19:55:26;5.87;;;4.30;;
19673;SDS011;9986;50.610;7.230;2023-02-28T19:58:14;4.93;;;4.43;;
19673;SDS011;9986;50.610;7.230;2023-02-28T20:01:04;4.63;;;4.17;;
19673;SDS011;9986;50.610;7.230;2023-02-28T20:03:46;4.80;;;4.30;;
19673;SDS011;9986;50.610;7.230;2023-02-28T20:06:25;7.13;;;5.17;;
19673;SDS011;9986;50.610;7.230;2023-02-28T20:11:34;5.40;;;4.87;;
19673;SDS011;9986;50.610;7.230;2023-02-28T20:14:13;5.83;;;5.17;;
19673;SDS011;9986;50.610;7.230;2023-02-28T20:16:51;7.20;;;5.13;;
19673;SDS011;9986;50.610;7.230;2023-02-28T20:19:29;4.73;;;4.27;;
19673;SDS011;9986;50.610;7.230;2023-02-28T20:22:07;7.23;;;5.30;;
19673;SDS011;9986;50.610;7.230;2023-02-28T20:24:48;5.33;;;4.83;;
19673;SDS011;9986;50.610;7.230;2023-02-28T20:27:26;6.00;;;5.00;;
19673;SDS011;9986;50.610;7.230;2023-02-28T20:32:37;5.50;;;5.00;;
19673;SDS011;9986;50.610;7.230;2023-02-28T20:35:15;7.20;;;5.17;;
19673;SDS011;9986;50.610;7.230;2023-02-28T20:40:23;6.30;;;5.70;;
19673;SDS011;9986;50.610;7.230;2023-02-28T20:43:03;6.00;;;5.40;;
19673;SDS011;9986;50.610;7.230;2023-02-28T20:45:50;6.93;;;5.33;;
19673;SDS011;9986;50.610;7.230;2023-02-28T20:48:28;5.97;;;5.37;;
19673;SDS011;9986;50.610;7.230;2023-02-28T20:53:39;7.40;;;5.93;;
19673;SDS011;9986;50.610;7.230;2023-02-28T20:56:23;5.37;;;4.60;;
19673;SDS011;9986;50.610;7.230;2023-02-28T20:59:04;5.47;;;4.30;;
19673;SDS011;9986;50.610;7.230;2023-02-28T21:01:42;4.67;;;4.23;;
19673;SDS011;9986;50.610;7.230;2023-02-28T21:04:21;5.43;;;4.33;;
19673;SDS011;9986;50.610;7.230;2023-02-28T21:07:02;5.67;;;4.70;;
19673;SDS011;9986;50.610;7.230;2023-02-28T21:14:47;5.53;;;4.60;;
19673;SDS011;9986;50.610;7.230;2023-02-28T21:17:26;5.63;;;4.60;;
19673;SDS011;9986;50.610;7.230;2023-02-28T21:20:06;6.83;;;4.07;;
19673;SDS011;9986;50.610;7.230;2023-02-28T21:22:45;4.40;;;4.00;;
19673;SDS011;9986;50.610;7.230;2023-02-28T21:25:24;4.70;;;4.30;;
19673;SDS011;9986;50.610;7.230;2023-02-28T21:30:35;5.67;;;5.13;;
19673;SDS011;9986;50.610;7.230;2023-02-28T21:33:13;6.80;;;5.13;;
19673;SDS011;9986;50.610;7.230;2023-02-28T21:38:36;6.20;;;5.37;;
19673;SDS011;9986;50.610;7.230;2023-02-28T21:41:15;8.10;;;6.93;;
19673;SDS011;9986;50.610;7.230;2023-02-28T21:43:53;7.97;;;6.20;;
19673;SDS011;9986;50.610;7.230;2023-02-28T21:46:31;8.10;;;6.20;;
19673;SDS011;9986;50.610;7.230;2023-02-28T21:49:09;6.30;;;5.70;;